<?xml version="1.0" encoding="UTF-8" standalone="no" ?>
<gpx xmlns="http://www.topografix.com/GPX/1/1" xmlns:xsi="http://www.w3.org/2001/XMLSchema-instance" xsi:schemaLocation="http://www.topografix.com/GPX/1/1 http://www.topografix.com/GPX/1/1/gpx.xsd" version="1.1" creator="VisuGPX - https://www.visugpx.com">
  <metadata>
    <name>Enfer Vert 2017</name>
    <desc><![CDATA[Petite rando avec Quentin, tranquille, temps sec.]]></desc>
  </metadata>
  <trk>
    <name><![CDATA[EV2017]]></name>
    <trkseg>
      <trkpt lat="50.13509" lon="3.76326">
        <ele>153.95</ele>
        <time>2017-04-02T07:50:43Z</time>
      </trkpt>
      <trkpt lat="50.13509" lon="3.76326">
        <ele>153.95</ele>
        <time>2017-04-02T07:50:44Z</time>
      </trkpt>
      <trkpt lat="50.13509" lon="3.76332">
        <ele>154.43</ele>
        <time>2017-04-02T07:50:53Z</time>
      </trkpt>
      <trkpt lat="50.13509" lon="3.76354">
        <ele>154.43</ele>
        <time>2017-04-02T07:51:03Z</time>
      </trkpt>
      <trkpt lat="50.13512" lon="3.76361">
        <ele>154.91</ele>
        <time>2017-04-02T07:51:06Z</time>
      </trkpt>
      <trkpt lat="50.13537" lon="3.76366">
        <ele>155.39</ele>
        <time>2017-04-02T07:51:18Z</time>
      </trkpt>
      <trkpt lat="50.13571" lon="3.76361">
        <ele>155.87</ele>
        <time>2017-04-02T07:51:31Z</time>
      </trkpt>
      <trkpt lat="50.13617" lon="3.76356">
        <ele>157.31</ele>
        <time>2017-04-02T07:51:48Z</time>
      </trkpt>
      <trkpt lat="50.13649" lon="3.76353">
        <ele>157.31</ele>
        <time>2017-04-02T07:52:01Z</time>
      </trkpt>
      <trkpt lat="50.13686" lon="3.76331">
        <ele>157.31</ele>
        <time>2017-04-02T07:52:14Z</time>
      </trkpt>
      <trkpt lat="50.13694" lon="3.76314">
        <ele>156.35</ele>
        <time>2017-04-02T07:52:18Z</time>
      </trkpt>
      <trkpt lat="50.13692" lon="3.76309">
        <ele>156.35</ele>
        <time>2017-04-02T07:52:19Z</time>
      </trkpt>
      <trkpt lat="50.1369" lon="3.76305">
        <ele>156.35</ele>
        <time>2017-04-02T07:52:20Z</time>
      </trkpt>
      <trkpt lat="50.13688" lon="3.76299">
        <ele>156.35</ele>
        <time>2017-04-02T07:52:21Z</time>
      </trkpt>
      <trkpt lat="50.13687" lon="3.76294">
        <ele>156.35</ele>
        <time>2017-04-02T07:52:22Z</time>
      </trkpt>
      <trkpt lat="50.13687" lon="3.76289">
        <ele>155.87</ele>
        <time>2017-04-02T07:52:23Z</time>
      </trkpt>
      <trkpt lat="50.13687" lon="3.76285">
        <ele>155.87</ele>
        <time>2017-04-02T07:52:24Z</time>
      </trkpt>
      <trkpt lat="50.1369" lon="3.76283">
        <ele>155.87</ele>
        <time>2017-04-02T07:52:25Z</time>
      </trkpt>
      <trkpt lat="50.13693" lon="3.76283">
        <ele>155.87</ele>
        <time>2017-04-02T07:52:26Z</time>
      </trkpt>
      <trkpt lat="50.13695" lon="3.76284">
        <ele>155.87</ele>
        <time>2017-04-02T07:52:27Z</time>
      </trkpt>
      <trkpt lat="50.13697" lon="3.76284">
        <ele>155.87</ele>
        <time>2017-04-02T07:52:28Z</time>
      </trkpt>
      <trkpt lat="50.137" lon="3.76285">
        <ele>155.87</ele>
        <time>2017-04-02T07:52:29Z</time>
      </trkpt>
      <trkpt lat="50.13737" lon="3.76306">
        <ele>155.39</ele>
        <time>2017-04-02T07:52:42Z</time>
      </trkpt>
      <trkpt lat="50.13779" lon="3.76352">
        <ele>155.39</ele>
        <time>2017-04-02T07:52:58Z</time>
      </trkpt>
      <trkpt lat="50.13811" lon="3.76372">
        <ele>157.31</ele>
        <time>2017-04-02T07:53:11Z</time>
      </trkpt>
      <trkpt lat="50.13854" lon="3.7638">
        <ele>158.75</ele>
        <time>2017-04-02T07:53:28Z</time>
      </trkpt>
      <trkpt lat="50.13889" lon="3.76363">
        <ele>159.24</ele>
        <time>2017-04-02T07:53:44Z</time>
      </trkpt>
      <trkpt lat="50.13929" lon="3.7632">
        <ele>159.24</ele>
        <time>2017-04-02T07:54:00Z</time>
      </trkpt>
      <trkpt lat="50.13954" lon="3.76281">
        <ele>159.24</ele>
        <time>2017-04-02T07:54:10Z</time>
      </trkpt>
      <trkpt lat="50.13957" lon="3.76281">
        <ele>159.24</ele>
        <time>2017-04-02T07:54:11Z</time>
      </trkpt>
      <trkpt lat="50.13959" lon="3.76284">
        <ele>157.79</ele>
        <time>2017-04-02T07:54:12Z</time>
      </trkpt>
      <trkpt lat="50.13986" lon="3.76329">
        <ele>157.79</ele>
        <time>2017-04-02T07:54:27Z</time>
      </trkpt>
      <trkpt lat="50.14039" lon="3.76332">
        <ele>157.31</ele>
        <time>2017-04-02T07:54:43Z</time>
      </trkpt>
      <trkpt lat="50.14103" lon="3.76327">
        <ele>156.35</ele>
        <time>2017-04-02T07:54:59Z</time>
      </trkpt>
      <trkpt lat="50.14152" lon="3.76351">
        <ele>154.91</ele>
        <time>2017-04-02T07:55:13Z</time>
      </trkpt>
      <trkpt lat="50.14194" lon="3.76394">
        <ele>153.95</ele>
        <time>2017-04-02T07:55:28Z</time>
      </trkpt>
      <trkpt lat="50.14227" lon="3.76423">
        <ele>152.51</ele>
        <time>2017-04-02T07:55:39Z</time>
      </trkpt>
      <trkpt lat="50.14289" lon="3.76469">
        <ele>151.06</ele>
        <time>2017-04-02T07:55:57Z</time>
      </trkpt>
      <trkpt lat="50.14339" lon="3.76498">
        <ele>149.14</ele>
        <time>2017-04-02T07:56:12Z</time>
      </trkpt>
      <trkpt lat="50.14387" lon="3.76518">
        <ele>147.7</ele>
        <time>2017-04-02T07:56:27Z</time>
      </trkpt>
      <trkpt lat="50.14451" lon="3.76561">
        <ele>144.82</ele>
        <time>2017-04-02T07:56:42Z</time>
      </trkpt>
      <trkpt lat="50.14529" lon="3.76619">
        <ele>142.89</ele>
        <time>2017-04-02T07:56:59Z</time>
      </trkpt>
      <trkpt lat="50.14564" lon="3.76641">
        <ele>142.41</ele>
        <time>2017-04-02T07:57:06Z</time>
      </trkpt>
      <trkpt lat="50.14603" lon="3.7671">
        <ele>142.41</ele>
        <time>2017-04-02T07:57:18Z</time>
      </trkpt>
      <trkpt lat="50.14645" lon="3.76803">
        <ele>141.93</ele>
        <time>2017-04-02T07:57:35Z</time>
      </trkpt>
      <trkpt lat="50.14648" lon="3.76809">
        <ele>141.45</ele>
        <time>2017-04-02T07:57:36Z</time>
      </trkpt>
      <trkpt lat="50.14659" lon="3.76825">
        <ele>140.49</ele>
        <time>2017-04-02T07:57:39Z</time>
      </trkpt>
      <trkpt lat="50.14722" lon="3.76886">
        <ele>139.05</ele>
        <time>2017-04-02T07:57:55Z</time>
      </trkpt>
      <trkpt lat="50.14764" lon="3.76918">
        <ele>139.05</ele>
        <time>2017-04-02T07:58:09Z</time>
      </trkpt>
      <trkpt lat="50.14798" lon="3.76944">
        <ele>139.05</ele>
        <time>2017-04-02T07:58:20Z</time>
      </trkpt>
      <trkpt lat="50.14806" lon="3.76951">
        <ele>139.05</ele>
        <time>2017-04-02T07:58:22Z</time>
      </trkpt>
      <trkpt lat="50.1481" lon="3.76955">
        <ele>139.05</ele>
        <time>2017-04-02T07:58:23Z</time>
      </trkpt>
      <trkpt lat="50.14865" lon="3.77019">
        <ele>136.16</ele>
        <time>2017-04-02T07:58:37Z</time>
      </trkpt>
      <trkpt lat="50.14879" lon="3.77036">
        <ele>135.68</ele>
        <time>2017-04-02T07:58:41Z</time>
      </trkpt>
      <trkpt lat="50.14884" lon="3.77039">
        <ele>135.2</ele>
        <time>2017-04-02T07:58:42Z</time>
      </trkpt>
      <trkpt lat="50.14889" lon="3.77041">
        <ele>134.72</ele>
        <time>2017-04-02T07:58:43Z</time>
      </trkpt>
      <trkpt lat="50.14894" lon="3.7704">
        <ele>134.72</ele>
        <time>2017-04-02T07:58:44Z</time>
      </trkpt>
      <trkpt lat="50.14899" lon="3.7704">
        <ele>133.76</ele>
        <time>2017-04-02T07:58:45Z</time>
      </trkpt>
      <trkpt lat="50.14917" lon="3.77038">
        <ele>133.28</ele>
        <time>2017-04-02T07:58:52Z</time>
      </trkpt>
      <trkpt lat="50.14918" lon="3.77035">
        <ele>133.28</ele>
        <time>2017-04-02T07:58:53Z</time>
      </trkpt>
      <trkpt lat="50.14918" lon="3.77032">
        <ele>133.28</ele>
        <time>2017-04-02T07:58:54Z</time>
      </trkpt>
      <trkpt lat="50.14909" lon="3.76972">
        <ele>133.28</ele>
        <time>2017-04-02T07:59:07Z</time>
      </trkpt>
      <trkpt lat="50.14907" lon="3.76962">
        <ele>134.72</ele>
        <time>2017-04-02T07:59:09Z</time>
      </trkpt>
      <trkpt lat="50.14885" lon="3.76882">
        <ele>135.2</ele>
        <time>2017-04-02T07:59:24Z</time>
      </trkpt>
      <trkpt lat="50.14883" lon="3.76869">
        <ele>135.2</ele>
        <time>2017-04-02T07:59:26Z</time>
      </trkpt>
      <trkpt lat="50.14864" lon="3.76806">
        <ele>135.2</ele>
        <time>2017-04-02T07:59:39Z</time>
      </trkpt>
      <trkpt lat="50.14839" lon="3.76739">
        <ele>135.2</ele>
        <time>2017-04-02T07:59:55Z</time>
      </trkpt>
      <trkpt lat="50.14817" lon="3.7665">
        <ele>135.68</ele>
        <time>2017-04-02T08:00:13Z</time>
      </trkpt>
      <trkpt lat="50.14797" lon="3.76557">
        <ele>135.68</ele>
        <time>2017-04-02T08:00:31Z</time>
      </trkpt>
      <trkpt lat="50.14785" lon="3.76496">
        <ele>135.68</ele>
        <time>2017-04-02T08:00:44Z</time>
      </trkpt>
      <trkpt lat="50.14768" lon="3.76432">
        <ele>135.68</ele>
        <time>2017-04-02T08:00:57Z</time>
      </trkpt>
      <trkpt lat="50.14739" lon="3.76334">
        <ele>134.72</ele>
        <time>2017-04-02T08:01:15Z</time>
      </trkpt>
      <trkpt lat="50.14738" lon="3.76328">
        <ele>134.72</ele>
        <time>2017-04-02T08:01:16Z</time>
      </trkpt>
      <trkpt lat="50.14726" lon="3.76285">
        <ele>134.72</ele>
        <time>2017-04-02T08:01:26Z</time>
      </trkpt>
      <trkpt lat="50.14697" lon="3.76237">
        <ele>134.72</ele>
        <time>2017-04-02T08:01:41Z</time>
      </trkpt>
      <trkpt lat="50.14674" lon="3.76213">
        <ele>134.72</ele>
        <time>2017-04-02T08:01:51Z</time>
      </trkpt>
      <trkpt lat="50.14653" lon="3.76189">
        <ele>136.16</ele>
        <time>2017-04-02T08:02:02Z</time>
      </trkpt>
      <trkpt lat="50.1463" lon="3.76157">
        <ele>137.13</ele>
        <time>2017-04-02T08:02:14Z</time>
      </trkpt>
      <trkpt lat="50.14619" lon="3.76133">
        <ele>137.61</ele>
        <time>2017-04-02T08:02:22Z</time>
      </trkpt>
      <trkpt lat="50.14617" lon="3.7613">
        <ele>138.09</ele>
        <time>2017-04-02T08:02:23Z</time>
      </trkpt>
      <trkpt lat="50.14603" lon="3.76085">
        <ele>139.05</ele>
        <time>2017-04-02T08:02:36Z</time>
      </trkpt>
      <trkpt lat="50.14579" lon="3.76014">
        <ele>140.01</ele>
        <time>2017-04-02T08:02:53Z</time>
      </trkpt>
      <trkpt lat="50.14572" lon="3.75966">
        <ele>140.49</ele>
        <time>2017-04-02T08:03:05Z</time>
      </trkpt>
      <trkpt lat="50.14565" lon="3.75889">
        <ele>140.49</ele>
        <time>2017-04-02T08:03:18Z</time>
      </trkpt>
      <trkpt lat="50.14555" lon="3.75803">
        <ele>140.49</ele>
        <time>2017-04-02T08:03:33Z</time>
      </trkpt>
      <trkpt lat="50.14548" lon="3.75696">
        <ele>140.49</ele>
        <time>2017-04-02T08:03:51Z</time>
      </trkpt>
      <trkpt lat="50.14548" lon="3.75638">
        <ele>140.49</ele>
        <time>2017-04-02T08:04:02Z</time>
      </trkpt>
      <trkpt lat="50.14551" lon="3.75636">
        <ele>140.49</ele>
        <time>2017-04-02T08:04:03Z</time>
      </trkpt>
      <trkpt lat="50.14593" lon="3.75603">
        <ele>139.53</ele>
        <time>2017-04-02T08:04:16Z</time>
      </trkpt>
      <trkpt lat="50.14593" lon="3.75598">
        <ele>139.05</ele>
        <time>2017-04-02T08:04:17Z</time>
      </trkpt>
      <trkpt lat="50.14593" lon="3.75592">
        <ele>139.05</ele>
        <time>2017-04-02T08:04:18Z</time>
      </trkpt>
      <trkpt lat="50.14592" lon="3.75586">
        <ele>139.05</ele>
        <time>2017-04-02T08:04:19Z</time>
      </trkpt>
      <trkpt lat="50.14591" lon="3.75581">
        <ele>139.05</ele>
        <time>2017-04-02T08:04:20Z</time>
      </trkpt>
      <trkpt lat="50.14581" lon="3.75508">
        <ele>139.05</ele>
        <time>2017-04-02T08:04:34Z</time>
      </trkpt>
      <trkpt lat="50.14561" lon="3.75431">
        <ele>139.05</ele>
        <time>2017-04-02T08:04:49Z</time>
      </trkpt>
      <trkpt lat="50.14531" lon="3.75361">
        <ele>139.05</ele>
        <time>2017-04-02T08:05:05Z</time>
      </trkpt>
      <trkpt lat="50.14498" lon="3.75303">
        <ele>138.57</ele>
        <time>2017-04-02T08:05:20Z</time>
      </trkpt>
      <trkpt lat="50.14497" lon="3.753">
        <ele>138.09</ele>
        <time>2017-04-02T08:05:27Z</time>
      </trkpt>
      <trkpt lat="50.14494" lon="3.75296">
        <ele>138.09</ele>
        <time>2017-04-02T08:05:40Z</time>
      </trkpt>
      <trkpt lat="50.1448" lon="3.75228">
        <ele>137.61</ele>
        <time>2017-04-02T08:05:53Z</time>
      </trkpt>
      <trkpt lat="50.14461" lon="3.75138">
        <ele>136.16</ele>
        <time>2017-04-02T08:06:09Z</time>
      </trkpt>
      <trkpt lat="50.14449" lon="3.75071">
        <ele>135.2</ele>
        <time>2017-04-02T08:06:23Z</time>
      </trkpt>
      <trkpt lat="50.14436" lon="3.75001">
        <ele>134.72</ele>
        <time>2017-04-02T08:06:39Z</time>
      </trkpt>
      <trkpt lat="50.14424" lon="3.74942">
        <ele>134.24</ele>
        <time>2017-04-02T08:06:56Z</time>
      </trkpt>
      <trkpt lat="50.14413" lon="3.74883">
        <ele>133.28</ele>
        <time>2017-04-02T08:07:12Z</time>
      </trkpt>
      <trkpt lat="50.14404" lon="3.74821">
        <ele>132.8</ele>
        <time>2017-04-02T08:07:27Z</time>
      </trkpt>
      <trkpt lat="50.14399" lon="3.74741">
        <ele>132.32</ele>
        <time>2017-04-02T08:07:43Z</time>
      </trkpt>
      <trkpt lat="50.14399" lon="3.74664">
        <ele>131.84</ele>
        <time>2017-04-02T08:07:57Z</time>
      </trkpt>
      <trkpt lat="50.14388" lon="3.74576">
        <ele>131.36</ele>
        <time>2017-04-02T08:08:12Z</time>
      </trkpt>
      <trkpt lat="50.14366" lon="3.74511">
        <ele>131.36</ele>
        <time>2017-04-02T08:08:25Z</time>
      </trkpt>
      <trkpt lat="50.1436" lon="3.74452">
        <ele>130.88</ele>
        <time>2017-04-02T08:08:37Z</time>
      </trkpt>
      <trkpt lat="50.14366" lon="3.74393">
        <ele>130.88</ele>
        <time>2017-04-02T08:08:48Z</time>
      </trkpt>
      <trkpt lat="50.14342" lon="3.74298">
        <ele>130.4</ele>
        <time>2017-04-02T08:09:06Z</time>
      </trkpt>
      <trkpt lat="50.14318" lon="3.74217">
        <ele>130.4</ele>
        <time>2017-04-02T08:09:23Z</time>
      </trkpt>
      <trkpt lat="50.14288" lon="3.74146">
        <ele>130.4</ele>
        <time>2017-04-02T08:09:40Z</time>
      </trkpt>
      <trkpt lat="50.14231" lon="3.74129">
        <ele>130.4</ele>
        <time>2017-04-02T08:09:58Z</time>
      </trkpt>
      <trkpt lat="50.14222" lon="3.74121">
        <ele>130.4</ele>
        <time>2017-04-02T08:10:01Z</time>
      </trkpt>
      <trkpt lat="50.1422" lon="3.74116">
        <ele>130.4</ele>
        <time>2017-04-02T08:10:02Z</time>
      </trkpt>
      <trkpt lat="50.1422" lon="3.74109">
        <ele>129.92</ele>
        <time>2017-04-02T08:10:03Z</time>
      </trkpt>
      <trkpt lat="50.14221" lon="3.74105">
        <ele>129.92</ele>
        <time>2017-04-02T08:10:04Z</time>
      </trkpt>
      <trkpt lat="50.14223" lon="3.741">
        <ele>129.92</ele>
        <time>2017-04-02T08:10:05Z</time>
      </trkpt>
      <trkpt lat="50.14224" lon="3.74096">
        <ele>129.92</ele>
        <time>2017-04-02T08:10:06Z</time>
      </trkpt>
      <trkpt lat="50.14245" lon="3.74026">
        <ele>129.92</ele>
        <time>2017-04-02T08:10:23Z</time>
      </trkpt>
      <trkpt lat="50.14265" lon="3.73947">
        <ele>129.92</ele>
        <time>2017-04-02T08:10:41Z</time>
      </trkpt>
      <trkpt lat="50.14279" lon="3.73852">
        <ele>129.92</ele>
        <time>2017-04-02T08:11:01Z</time>
      </trkpt>
      <trkpt lat="50.14277" lon="3.73791">
        <ele>131.36</ele>
        <time>2017-04-02T08:11:16Z</time>
      </trkpt>
      <trkpt lat="50.14274" lon="3.73761">
        <ele>131.36</ele>
        <time>2017-04-02T08:11:27Z</time>
      </trkpt>
      <trkpt lat="50.14276" lon="3.73761">
        <ele>131.36</ele>
        <time>2017-04-02T08:11:30Z</time>
      </trkpt>
      <trkpt lat="50.14277" lon="3.73762">
        <ele>131.36</ele>
        <time>2017-04-02T08:11:31Z</time>
      </trkpt>
      <trkpt lat="50.14278" lon="3.73762">
        <ele>131.36</ele>
        <time>2017-04-02T08:11:32Z</time>
      </trkpt>
      <trkpt lat="50.1428" lon="3.73762">
        <ele>131.36</ele>
        <time>2017-04-02T08:11:44Z</time>
      </trkpt>
      <trkpt lat="50.1428" lon="3.73763">
        <ele>131.36</ele>
        <time>2017-04-02T08:12:08Z</time>
      </trkpt>
      <trkpt lat="50.14278" lon="3.7376">
        <ele>131.36</ele>
        <time>2017-04-02T08:12:39Z</time>
      </trkpt>
      <trkpt lat="50.14281" lon="3.73763">
        <ele>131.36</ele>
        <time>2017-04-02T08:13:09Z</time>
      </trkpt>
      <trkpt lat="50.14279" lon="3.73765">
        <ele>131.36</ele>
        <time>2017-04-02T08:13:41Z</time>
      </trkpt>
      <trkpt lat="50.1428" lon="3.73765">
        <ele>131.36</ele>
        <time>2017-04-02T08:14:12Z</time>
      </trkpt>
      <trkpt lat="50.14279" lon="3.73764">
        <ele>131.36</ele>
        <time>2017-04-02T08:14:49Z</time>
      </trkpt>
      <trkpt lat="50.14281" lon="3.73762">
        <ele>131.36</ele>
        <time>2017-04-02T08:15:19Z</time>
      </trkpt>
      <trkpt lat="50.14281" lon="3.73762">
        <ele>131.36</ele>
        <time>2017-04-02T08:15:51Z</time>
      </trkpt>
      <trkpt lat="50.14279" lon="3.73761">
        <ele>131.36</ele>
        <time>2017-04-02T08:16:23Z</time>
      </trkpt>
      <trkpt lat="50.14279" lon="3.73762">
        <ele>131.36</ele>
        <time>2017-04-02T08:17:00Z</time>
      </trkpt>
      <trkpt lat="50.1428" lon="3.73763">
        <ele>131.36</ele>
        <time>2017-04-02T08:17:33Z</time>
      </trkpt>
      <trkpt lat="50.14279" lon="3.73764">
        <ele>131.36</ele>
        <time>2017-04-02T08:18:02Z</time>
      </trkpt>
      <trkpt lat="50.1428" lon="3.73761">
        <ele>131.36</ele>
        <time>2017-04-02T08:18:32Z</time>
      </trkpt>
      <trkpt lat="50.14281" lon="3.73763">
        <ele>131.36</ele>
        <time>2017-04-02T08:19:02Z</time>
      </trkpt>
      <trkpt lat="50.14278" lon="3.73764">
        <ele>131.84</ele>
        <time>2017-04-02T08:19:35Z</time>
      </trkpt>
      <trkpt lat="50.14278" lon="3.73763">
        <ele>131.84</ele>
        <time>2017-04-02T08:20:12Z</time>
      </trkpt>
      <trkpt lat="50.14278" lon="3.73764">
        <ele>131.84</ele>
        <time>2017-04-02T08:20:55Z</time>
      </trkpt>
      <trkpt lat="50.14278" lon="3.73763">
        <ele>131.84</ele>
        <time>2017-04-02T08:21:24Z</time>
      </trkpt>
      <trkpt lat="50.14276" lon="3.73762">
        <ele>131.84</ele>
        <time>2017-04-02T08:21:36Z</time>
      </trkpt>
      <trkpt lat="50.14275" lon="3.73756">
        <ele>131.84</ele>
        <time>2017-04-02T08:21:48Z</time>
      </trkpt>
      <trkpt lat="50.14275" lon="3.73754">
        <ele>131.84</ele>
        <time>2017-04-02T08:21:49Z</time>
      </trkpt>
      <trkpt lat="50.14271" lon="3.73717">
        <ele>131.84</ele>
        <time>2017-04-02T08:22:01Z</time>
      </trkpt>
      <trkpt lat="50.14264" lon="3.73659">
        <ele>131.84</ele>
        <time>2017-04-02T08:22:18Z</time>
      </trkpt>
      <trkpt lat="50.14254" lon="3.73605">
        <ele>131.84</ele>
        <time>2017-04-02T08:22:34Z</time>
      </trkpt>
      <trkpt lat="50.14254" lon="3.73602">
        <ele>131.84</ele>
        <time>2017-04-02T08:22:35Z</time>
      </trkpt>
      <trkpt lat="50.14255" lon="3.73599">
        <ele>131.84</ele>
        <time>2017-04-02T08:22:36Z</time>
      </trkpt>
      <trkpt lat="50.14255" lon="3.73595">
        <ele>131.84</ele>
        <time>2017-04-02T08:22:37Z</time>
      </trkpt>
      <trkpt lat="50.14254" lon="3.73591">
        <ele>131.84</ele>
        <time>2017-04-02T08:22:38Z</time>
      </trkpt>
      <trkpt lat="50.14254" lon="3.73587">
        <ele>131.84</ele>
        <time>2017-04-02T08:22:39Z</time>
      </trkpt>
      <trkpt lat="50.14253" lon="3.73583">
        <ele>131.84</ele>
        <time>2017-04-02T08:22:40Z</time>
      </trkpt>
      <trkpt lat="50.14253" lon="3.73579">
        <ele>131.84</ele>
        <time>2017-04-02T08:22:41Z</time>
      </trkpt>
      <trkpt lat="50.14252" lon="3.73574">
        <ele>131.84</ele>
        <time>2017-04-02T08:22:42Z</time>
      </trkpt>
      <trkpt lat="50.14241" lon="3.73521">
        <ele>131.84</ele>
        <time>2017-04-02T08:22:51Z</time>
      </trkpt>
      <trkpt lat="50.14238" lon="3.73516">
        <ele>131.84</ele>
        <time>2017-04-02T08:22:52Z</time>
      </trkpt>
      <trkpt lat="50.14236" lon="3.73511">
        <ele>131.84</ele>
        <time>2017-04-02T08:22:53Z</time>
      </trkpt>
      <trkpt lat="50.14233" lon="3.73506">
        <ele>131.84</ele>
        <time>2017-04-02T08:22:54Z</time>
      </trkpt>
      <trkpt lat="50.1423" lon="3.73502">
        <ele>131.84</ele>
        <time>2017-04-02T08:22:55Z</time>
      </trkpt>
      <trkpt lat="50.14196" lon="3.73467">
        <ele>131.84</ele>
        <time>2017-04-02T08:23:06Z</time>
      </trkpt>
      <trkpt lat="50.14134" lon="3.73429">
        <ele>131.84</ele>
        <time>2017-04-02T08:23:22Z</time>
      </trkpt>
      <trkpt lat="50.14109" lon="3.73416">
        <ele>131.84</ele>
        <time>2017-04-02T08:23:32Z</time>
      </trkpt>
      <trkpt lat="50.14065" lon="3.73382">
        <ele>131.84</ele>
        <time>2017-04-02T08:23:48Z</time>
      </trkpt>
      <trkpt lat="50.14018" lon="3.73308">
        <ele>130.88</ele>
        <time>2017-04-02T08:24:05Z</time>
      </trkpt>
      <trkpt lat="50.13973" lon="3.73232">
        <ele>130.88</ele>
        <time>2017-04-02T08:24:22Z</time>
      </trkpt>
      <trkpt lat="50.13932" lon="3.73165">
        <ele>130.4</ele>
        <time>2017-04-02T08:24:37Z</time>
      </trkpt>
      <trkpt lat="50.13884" lon="3.73105">
        <ele>130.4</ele>
        <time>2017-04-02T08:24:51Z</time>
      </trkpt>
      <trkpt lat="50.13825" lon="3.73037">
        <ele>130.4</ele>
        <time>2017-04-02T08:25:07Z</time>
      </trkpt>
      <trkpt lat="50.13776" lon="3.72966">
        <ele>129.92</ele>
        <time>2017-04-02T08:25:23Z</time>
      </trkpt>
      <trkpt lat="50.13721" lon="3.72908">
        <ele>129.92</ele>
        <time>2017-04-02T08:25:39Z</time>
      </trkpt>
      <trkpt lat="50.13658" lon="3.72844">
        <ele>129.92</ele>
        <time>2017-04-02T08:25:59Z</time>
      </trkpt>
      <trkpt lat="50.13598" lon="3.72788">
        <ele>129.92</ele>
        <time>2017-04-02T08:26:18Z</time>
      </trkpt>
      <trkpt lat="50.13544" lon="3.72751">
        <ele>129.92</ele>
        <time>2017-04-02T08:26:34Z</time>
      </trkpt>
      <trkpt lat="50.13489" lon="3.72729">
        <ele>131.36</ele>
        <time>2017-04-02T08:26:50Z</time>
      </trkpt>
      <trkpt lat="50.13424" lon="3.72708">
        <ele>132.32</ele>
        <time>2017-04-02T08:27:08Z</time>
      </trkpt>
      <trkpt lat="50.13371" lon="3.72696">
        <ele>132.8</ele>
        <time>2017-04-02T08:27:24Z</time>
      </trkpt>
      <trkpt lat="50.13328" lon="3.72686">
        <ele>132.8</ele>
        <time>2017-04-02T08:27:35Z</time>
      </trkpt>
      <trkpt lat="50.13265" lon="3.72655">
        <ele>132.8</ele>
        <time>2017-04-02T08:27:53Z</time>
      </trkpt>
      <trkpt lat="50.13217" lon="3.72627">
        <ele>131.84</ele>
        <time>2017-04-02T08:28:07Z</time>
      </trkpt>
      <trkpt lat="50.1315" lon="3.72594">
        <ele>131.36</ele>
        <time>2017-04-02T08:28:26Z</time>
      </trkpt>
      <trkpt lat="50.13094" lon="3.72569">
        <ele>131.36</ele>
        <time>2017-04-02T08:28:42Z</time>
      </trkpt>
      <trkpt lat="50.1309" lon="3.72565">
        <ele>131.36</ele>
        <time>2017-04-02T08:28:43Z</time>
      </trkpt>
      <trkpt lat="50.13045" lon="3.72493">
        <ele>131.36</ele>
        <time>2017-04-02T08:29:00Z</time>
      </trkpt>
      <trkpt lat="50.13025" lon="3.72463">
        <ele>131.36</ele>
        <time>2017-04-02T08:29:08Z</time>
      </trkpt>
      <trkpt lat="50.13022" lon="3.72464">
        <ele>132.8</ele>
        <time>2017-04-02T08:29:09Z</time>
      </trkpt>
      <trkpt lat="50.13019" lon="3.72466">
        <ele>132.8</ele>
        <time>2017-04-02T08:29:10Z</time>
      </trkpt>
      <trkpt lat="50.13017" lon="3.72469">
        <ele>132.8</ele>
        <time>2017-04-02T08:29:11Z</time>
      </trkpt>
      <trkpt lat="50.13015" lon="3.72473">
        <ele>132.8</ele>
        <time>2017-04-02T08:29:12Z</time>
      </trkpt>
      <trkpt lat="50.13012" lon="3.72476">
        <ele>132.8</ele>
        <time>2017-04-02T08:29:13Z</time>
      </trkpt>
      <trkpt lat="50.12979" lon="3.72522">
        <ele>133.76</ele>
        <time>2017-04-02T08:29:27Z</time>
      </trkpt>
      <trkpt lat="50.12942" lon="3.72573">
        <ele>134.72</ele>
        <time>2017-04-02T08:29:44Z</time>
      </trkpt>
      <trkpt lat="50.12905" lon="3.72621">
        <ele>135.2</ele>
        <time>2017-04-02T08:29:59Z</time>
      </trkpt>
      <trkpt lat="50.12879" lon="3.72657">
        <ele>136.16</ele>
        <time>2017-04-02T08:30:12Z</time>
      </trkpt>
      <trkpt lat="50.12849" lon="3.727">
        <ele>136.64</ele>
        <time>2017-04-02T08:30:28Z</time>
      </trkpt>
      <trkpt lat="50.12849" lon="3.72712">
        <ele>137.13</ele>
        <time>2017-04-02T08:30:31Z</time>
      </trkpt>
      <trkpt lat="50.12851" lon="3.72715">
        <ele>137.13</ele>
        <time>2017-04-02T08:30:32Z</time>
      </trkpt>
      <trkpt lat="50.12853" lon="3.72718">
        <ele>137.13</ele>
        <time>2017-04-02T08:30:33Z</time>
      </trkpt>
      <trkpt lat="50.12855" lon="3.72721">
        <ele>137.13</ele>
        <time>2017-04-02T08:30:34Z</time>
      </trkpt>
      <trkpt lat="50.12858" lon="3.72723">
        <ele>137.13</ele>
        <time>2017-04-02T08:30:35Z</time>
      </trkpt>
      <trkpt lat="50.1286" lon="3.72724">
        <ele>137.13</ele>
        <time>2017-04-02T08:30:36Z</time>
      </trkpt>
      <trkpt lat="50.12874" lon="3.72747">
        <ele>137.61</ele>
        <time>2017-04-02T08:30:44Z</time>
      </trkpt>
      <trkpt lat="50.12874" lon="3.7275">
        <ele>137.61</ele>
        <time>2017-04-02T08:30:45Z</time>
      </trkpt>
      <trkpt lat="50.12874" lon="3.72753">
        <ele>137.61</ele>
        <time>2017-04-02T08:30:46Z</time>
      </trkpt>
      <trkpt lat="50.12873" lon="3.72756">
        <ele>137.61</ele>
        <time>2017-04-02T08:30:47Z</time>
      </trkpt>
      <trkpt lat="50.12872" lon="3.72758">
        <ele>137.61</ele>
        <time>2017-04-02T08:30:48Z</time>
      </trkpt>
      <trkpt lat="50.12871" lon="3.72762">
        <ele>137.61</ele>
        <time>2017-04-02T08:30:49Z</time>
      </trkpt>
      <trkpt lat="50.12869" lon="3.72764">
        <ele>137.61</ele>
        <time>2017-04-02T08:30:50Z</time>
      </trkpt>
      <trkpt lat="50.12847" lon="3.72804">
        <ele>138.57</ele>
        <time>2017-04-02T08:31:03Z</time>
      </trkpt>
      <trkpt lat="50.12817" lon="3.72857">
        <ele>140.01</ele>
        <time>2017-04-02T08:31:20Z</time>
      </trkpt>
      <trkpt lat="50.12817" lon="3.7286">
        <ele>140.49</ele>
        <time>2017-04-02T08:31:21Z</time>
      </trkpt>
      <trkpt lat="50.12817" lon="3.72863">
        <ele>140.49</ele>
        <time>2017-04-02T08:31:22Z</time>
      </trkpt>
      <trkpt lat="50.12817" lon="3.72867">
        <ele>140.49</ele>
        <time>2017-04-02T08:31:23Z</time>
      </trkpt>
      <trkpt lat="50.1282" lon="3.72928">
        <ele>140.97</ele>
        <time>2017-04-02T08:31:38Z</time>
      </trkpt>
      <trkpt lat="50.12826" lon="3.73004">
        <ele>142.41</ele>
        <time>2017-04-02T08:31:57Z</time>
      </trkpt>
      <trkpt lat="50.12827" lon="3.7307">
        <ele>143.37</ele>
        <time>2017-04-02T08:32:13Z</time>
      </trkpt>
      <trkpt lat="50.1281" lon="3.73095">
        <ele>144.82</ele>
        <time>2017-04-02T08:32:26Z</time>
      </trkpt>
      <trkpt lat="50.1281" lon="3.73136">
        <ele>145.3</ele>
        <time>2017-04-02T08:32:37Z</time>
      </trkpt>
      <trkpt lat="50.12811" lon="3.73183">
        <ele>145.78</ele>
        <time>2017-04-02T08:32:50Z</time>
      </trkpt>
      <trkpt lat="50.12815" lon="3.73226">
        <ele>146.26</ele>
        <time>2017-04-02T08:33:03Z</time>
      </trkpt>
      <trkpt lat="50.12818" lon="3.73287">
        <ele>147.7</ele>
        <time>2017-04-02T08:33:21Z</time>
      </trkpt>
      <trkpt lat="50.12819" lon="3.73295">
        <ele>148.18</ele>
        <time>2017-04-02T08:33:24Z</time>
      </trkpt>
      <trkpt lat="50.12819" lon="3.73296">
        <ele>148.18</ele>
        <time>2017-04-02T08:33:25Z</time>
      </trkpt>
      <trkpt lat="50.12821" lon="3.73298">
        <ele>148.66</ele>
        <time>2017-04-02T08:33:26Z</time>
      </trkpt>
      <trkpt lat="50.12822" lon="3.733">
        <ele>148.66</ele>
        <time>2017-04-02T08:33:37Z</time>
      </trkpt>
      <trkpt lat="50.12822" lon="3.733">
        <ele>148.66</ele>
        <time>2017-04-02T08:34:10Z</time>
      </trkpt>
      <trkpt lat="50.12824" lon="3.73302">
        <ele>148.66</ele>
        <time>2017-04-02T08:34:43Z</time>
      </trkpt>
      <trkpt lat="50.12824" lon="3.73302">
        <ele>148.66</ele>
        <time>2017-04-02T08:35:05Z</time>
      </trkpt>
      <trkpt lat="50.12822" lon="3.73302">
        <ele>148.66</ele>
        <time>2017-04-02T08:35:21Z</time>
      </trkpt>
      <trkpt lat="50.12822" lon="3.73304">
        <ele>148.66</ele>
        <time>2017-04-02T08:35:22Z</time>
      </trkpt>
      <trkpt lat="50.12821" lon="3.73306">
        <ele>148.66</ele>
        <time>2017-04-02T08:35:23Z</time>
      </trkpt>
      <trkpt lat="50.12821" lon="3.73308">
        <ele>148.66</ele>
        <time>2017-04-02T08:35:24Z</time>
      </trkpt>
      <trkpt lat="50.1282" lon="3.73311">
        <ele>148.66</ele>
        <time>2017-04-02T08:35:25Z</time>
      </trkpt>
      <trkpt lat="50.1282" lon="3.73315">
        <ele>148.66</ele>
        <time>2017-04-02T08:35:26Z</time>
      </trkpt>
      <trkpt lat="50.12819" lon="3.73319">
        <ele>148.66</ele>
        <time>2017-04-02T08:35:27Z</time>
      </trkpt>
      <trkpt lat="50.12796" lon="3.73405">
        <ele>150.1</ele>
        <time>2017-04-02T08:35:45Z</time>
      </trkpt>
      <trkpt lat="50.12775" lon="3.73471">
        <ele>151.54</ele>
        <time>2017-04-02T08:36:02Z</time>
      </trkpt>
      <trkpt lat="50.12746" lon="3.73503">
        <ele>152.03</ele>
        <time>2017-04-02T08:36:15Z</time>
      </trkpt>
      <trkpt lat="50.12732" lon="3.73542">
        <ele>152.51</ele>
        <time>2017-04-02T08:36:26Z</time>
      </trkpt>
      <trkpt lat="50.12717" lon="3.7362">
        <ele>152.99</ele>
        <time>2017-04-02T08:36:44Z</time>
      </trkpt>
      <trkpt lat="50.12705" lon="3.73673">
        <ele>152.99</ele>
        <time>2017-04-02T08:36:57Z</time>
      </trkpt>
      <trkpt lat="50.12685" lon="3.73723">
        <ele>152.51</ele>
        <time>2017-04-02T08:37:11Z</time>
      </trkpt>
      <trkpt lat="50.12675" lon="3.73748">
        <ele>151.54</ele>
        <time>2017-04-02T08:37:17Z</time>
      </trkpt>
      <trkpt lat="50.12653" lon="3.73806">
        <ele>150.58</ele>
        <time>2017-04-02T08:37:31Z</time>
      </trkpt>
      <trkpt lat="50.1264" lon="3.73831">
        <ele>150.58</ele>
        <time>2017-04-02T08:37:45Z</time>
      </trkpt>
      <trkpt lat="50.12634" lon="3.73835">
        <ele>150.58</ele>
        <time>2017-04-02T08:37:57Z</time>
      </trkpt>
      <trkpt lat="50.12633" lon="3.73836">
        <ele>152.03</ele>
        <time>2017-04-02T08:38:00Z</time>
      </trkpt>
      <trkpt lat="50.12627" lon="3.73837">
        <ele>152.51</ele>
        <time>2017-04-02T08:38:09Z</time>
      </trkpt>
      <trkpt lat="50.12626" lon="3.73836">
        <ele>152.51</ele>
        <time>2017-04-02T08:38:10Z</time>
      </trkpt>
      <trkpt lat="50.12625" lon="3.73835">
        <ele>152.51</ele>
        <time>2017-04-02T08:38:11Z</time>
      </trkpt>
      <trkpt lat="50.12624" lon="3.73834">
        <ele>152.51</ele>
        <time>2017-04-02T08:38:12Z</time>
      </trkpt>
      <trkpt lat="50.12615" lon="3.73808">
        <ele>152.99</ele>
        <time>2017-04-02T08:38:28Z</time>
      </trkpt>
      <trkpt lat="50.12601" lon="3.73747">
        <ele>153.95</ele>
        <time>2017-04-02T08:38:46Z</time>
      </trkpt>
      <trkpt lat="50.12587" lon="3.73696">
        <ele>154.91</ele>
        <time>2017-04-02T08:39:01Z</time>
      </trkpt>
      <trkpt lat="50.12585" lon="3.73695">
        <ele>154.91</ele>
        <time>2017-04-02T08:39:02Z</time>
      </trkpt>
      <trkpt lat="50.12583" lon="3.73696">
        <ele>154.91</ele>
        <time>2017-04-02T08:39:03Z</time>
      </trkpt>
      <trkpt lat="50.12548" lon="3.73708">
        <ele>155.39</ele>
        <time>2017-04-02T08:39:17Z</time>
      </trkpt>
      <trkpt lat="50.12519" lon="3.73736">
        <ele>156.35</ele>
        <time>2017-04-02T08:39:31Z</time>
      </trkpt>
      <trkpt lat="50.12499" lon="3.73787">
        <ele>156.83</ele>
        <time>2017-04-02T08:39:46Z</time>
      </trkpt>
      <trkpt lat="50.1248" lon="3.73826">
        <ele>157.31</ele>
        <time>2017-04-02T08:39:58Z</time>
      </trkpt>
      <trkpt lat="50.12446" lon="3.73871">
        <ele>158.75</ele>
        <time>2017-04-02T08:40:14Z</time>
      </trkpt>
      <trkpt lat="50.12414" lon="3.7392">
        <ele>159.24</ele>
        <time>2017-04-02T08:40:30Z</time>
      </trkpt>
      <trkpt lat="50.12395" lon="3.73992">
        <ele>156.35</ele>
        <time>2017-04-02T08:40:44Z</time>
      </trkpt>
      <trkpt lat="50.12381" lon="3.74093">
        <ele>155.39</ele>
        <time>2017-04-02T08:41:01Z</time>
      </trkpt>
      <trkpt lat="50.1237" lon="3.74206">
        <ele>155.39</ele>
        <time>2017-04-02T08:41:18Z</time>
      </trkpt>
      <trkpt lat="50.12358" lon="3.7431">
        <ele>152.99</ele>
        <time>2017-04-02T08:41:34Z</time>
      </trkpt>
      <trkpt lat="50.12332" lon="3.74407">
        <ele>150.1</ele>
        <time>2017-04-02T08:41:49Z</time>
      </trkpt>
      <trkpt lat="50.12312" lon="3.74465">
        <ele>147.22</ele>
        <time>2017-04-02T08:41:58Z</time>
      </trkpt>
      <trkpt lat="50.12308" lon="3.7448">
        <ele>147.22</ele>
        <time>2017-04-02T08:42:00Z</time>
      </trkpt>
      <trkpt lat="50.12307" lon="3.74488">
        <ele>146.74</ele>
        <time>2017-04-02T08:42:01Z</time>
      </trkpt>
      <trkpt lat="50.12308" lon="3.74496">
        <ele>146.26</ele>
        <time>2017-04-02T08:42:02Z</time>
      </trkpt>
      <trkpt lat="50.12312" lon="3.7453">
        <ele>146.26</ele>
        <time>2017-04-02T08:42:07Z</time>
      </trkpt>
      <trkpt lat="50.12308" lon="3.74609">
        <ele>146.26</ele>
        <time>2017-04-02T08:42:21Z</time>
      </trkpt>
      <trkpt lat="50.12301" lon="3.74639">
        <ele>147.7</ele>
        <time>2017-04-02T08:42:27Z</time>
      </trkpt>
      <trkpt lat="50.12287" lon="3.74707">
        <ele>146.26</ele>
        <time>2017-04-02T08:42:38Z</time>
      </trkpt>
      <trkpt lat="50.12261" lon="3.74789">
        <ele>144.34</ele>
        <time>2017-04-02T08:42:51Z</time>
      </trkpt>
      <trkpt lat="50.12242" lon="3.74852">
        <ele>144.34</ele>
        <time>2017-04-02T08:43:01Z</time>
      </trkpt>
      <trkpt lat="50.12241" lon="3.74858">
        <ele>143.85</ele>
        <time>2017-04-02T08:43:02Z</time>
      </trkpt>
      <trkpt lat="50.12241" lon="3.74864">
        <ele>143.85</ele>
        <time>2017-04-02T08:43:03Z</time>
      </trkpt>
      <trkpt lat="50.12242" lon="3.7487">
        <ele>143.85</ele>
        <time>2017-04-02T08:43:04Z</time>
      </trkpt>
      <trkpt lat="50.12243" lon="3.74875">
        <ele>143.85</ele>
        <time>2017-04-02T08:43:05Z</time>
      </trkpt>
      <trkpt lat="50.12247" lon="3.74891">
        <ele>143.85</ele>
        <time>2017-04-02T08:43:08Z</time>
      </trkpt>
      <trkpt lat="50.1225" lon="3.74895">
        <ele>143.85</ele>
        <time>2017-04-02T08:43:09Z</time>
      </trkpt>
      <trkpt lat="50.12254" lon="3.74897">
        <ele>142.89</ele>
        <time>2017-04-02T08:43:10Z</time>
      </trkpt>
      <trkpt lat="50.12259" lon="3.74898">
        <ele>142.41</ele>
        <time>2017-04-02T08:43:11Z</time>
      </trkpt>
      <trkpt lat="50.12264" lon="3.74899">
        <ele>142.41</ele>
        <time>2017-04-02T08:43:12Z</time>
      </trkpt>
      <trkpt lat="50.12286" lon="3.74906">
        <ele>140.97</ele>
        <time>2017-04-02T08:43:17Z</time>
      </trkpt>
      <trkpt lat="50.12304" lon="3.74914">
        <ele>140.49</ele>
        <time>2017-04-02T08:43:21Z</time>
      </trkpt>
      <trkpt lat="50.12309" lon="3.74916">
        <ele>140.49</ele>
        <time>2017-04-02T08:43:22Z</time>
      </trkpt>
      <trkpt lat="50.12336" lon="3.74927">
        <ele>140.49</ele>
        <time>2017-04-02T08:43:28Z</time>
      </trkpt>
      <trkpt lat="50.12358" lon="3.74933">
        <ele>140.01</ele>
        <time>2017-04-02T08:43:33Z</time>
      </trkpt>
      <trkpt lat="50.12363" lon="3.74932">
        <ele>140.01</ele>
        <time>2017-04-02T08:43:34Z</time>
      </trkpt>
      <trkpt lat="50.12367" lon="3.7493">
        <ele>140.01</ele>
        <time>2017-04-02T08:43:35Z</time>
      </trkpt>
      <trkpt lat="50.12392" lon="3.74914">
        <ele>138.57</ele>
        <time>2017-04-02T08:43:41Z</time>
      </trkpt>
      <trkpt lat="50.12395" lon="3.74912">
        <ele>138.57</ele>
        <time>2017-04-02T08:43:42Z</time>
      </trkpt>
      <trkpt lat="50.12399" lon="3.74911">
        <ele>138.57</ele>
        <time>2017-04-02T08:43:43Z</time>
      </trkpt>
      <trkpt lat="50.12404" lon="3.74911">
        <ele>138.57</ele>
        <time>2017-04-02T08:43:44Z</time>
      </trkpt>
      <trkpt lat="50.12408" lon="3.74911">
        <ele>138.09</ele>
        <time>2017-04-02T08:43:45Z</time>
      </trkpt>
      <trkpt lat="50.12412" lon="3.74911">
        <ele>138.09</ele>
        <time>2017-04-02T08:43:46Z</time>
      </trkpt>
      <trkpt lat="50.12463" lon="3.74913">
        <ele>137.61</ele>
        <time>2017-04-02T08:43:59Z</time>
      </trkpt>
      <trkpt lat="50.12533" lon="3.74902">
        <ele>136.16</ele>
        <time>2017-04-02T08:44:16Z</time>
      </trkpt>
      <trkpt lat="50.12593" lon="3.74893">
        <ele>134.72</ele>
        <time>2017-04-02T08:44:30Z</time>
      </trkpt>
      <trkpt lat="50.12647" lon="3.74898">
        <ele>133.76</ele>
        <time>2017-04-02T08:44:44Z</time>
      </trkpt>
      <trkpt lat="50.12707" lon="3.74921">
        <ele>132.8</ele>
        <time>2017-04-02T08:45:00Z</time>
      </trkpt>
      <trkpt lat="50.12754" lon="3.74938">
        <ele>132.32</ele>
        <time>2017-04-02T08:45:15Z</time>
      </trkpt>
      <trkpt lat="50.12797" lon="3.74976">
        <ele>132.32</ele>
        <time>2017-04-02T08:45:30Z</time>
      </trkpt>
      <trkpt lat="50.12818" lon="3.75006">
        <ele>132.32</ele>
        <time>2017-04-02T08:45:42Z</time>
      </trkpt>
      <trkpt lat="50.12819" lon="3.75009">
        <ele>132.32</ele>
        <time>2017-04-02T08:45:43Z</time>
      </trkpt>
      <trkpt lat="50.12812" lon="3.75029">
        <ele>132.32</ele>
        <time>2017-04-02T08:45:50Z</time>
      </trkpt>
      <trkpt lat="50.12812" lon="3.7503">
        <ele>131.84</ele>
        <time>2017-04-02T08:46:05Z</time>
      </trkpt>
      <trkpt lat="50.12813" lon="3.75031">
        <ele>131.84</ele>
        <time>2017-04-02T08:46:30Z</time>
      </trkpt>
      <trkpt lat="50.1281" lon="3.75045">
        <ele>131.84</ele>
        <time>2017-04-02T08:46:46Z</time>
      </trkpt>
      <trkpt lat="50.12807" lon="3.75118">
        <ele>131.84</ele>
        <time>2017-04-02T08:46:58Z</time>
      </trkpt>
      <trkpt lat="50.12827" lon="3.75196">
        <ele>131.84</ele>
        <time>2017-04-02T08:47:13Z</time>
      </trkpt>
      <trkpt lat="50.12857" lon="3.75284">
        <ele>131.84</ele>
        <time>2017-04-02T08:47:31Z</time>
      </trkpt>
      <trkpt lat="50.12874" lon="3.75345">
        <ele>131.36</ele>
        <time>2017-04-02T08:47:43Z</time>
      </trkpt>
      <trkpt lat="50.12887" lon="3.75422">
        <ele>131.36</ele>
        <time>2017-04-02T08:47:59Z</time>
      </trkpt>
      <trkpt lat="50.12898" lon="3.7551">
        <ele>131.36</ele>
        <time>2017-04-02T08:48:16Z</time>
      </trkpt>
      <trkpt lat="50.1291" lon="3.75584">
        <ele>131.36</ele>
        <time>2017-04-02T08:48:31Z</time>
      </trkpt>
      <trkpt lat="50.12922" lon="3.75679">
        <ele>131.36</ele>
        <time>2017-04-02T08:48:48Z</time>
      </trkpt>
      <trkpt lat="50.1293" lon="3.75764">
        <ele>131.36</ele>
        <time>2017-04-02T08:49:05Z</time>
      </trkpt>
      <trkpt lat="50.12928" lon="3.75848">
        <ele>131.36</ele>
        <time>2017-04-02T08:49:21Z</time>
      </trkpt>
      <trkpt lat="50.12916" lon="3.75917">
        <ele>131.36</ele>
        <time>2017-04-02T08:49:35Z</time>
      </trkpt>
      <trkpt lat="50.12905" lon="3.75991">
        <ele>131.36</ele>
        <time>2017-04-02T08:49:52Z</time>
      </trkpt>
      <trkpt lat="50.12913" lon="3.76006">
        <ele>131.36</ele>
        <time>2017-04-02T08:49:58Z</time>
      </trkpt>
      <trkpt lat="50.12915" lon="3.76007">
        <ele>131.36</ele>
        <time>2017-04-02T08:49:59Z</time>
      </trkpt>
      <trkpt lat="50.12917" lon="3.76007">
        <ele>131.36</ele>
        <time>2017-04-02T08:50:00Z</time>
      </trkpt>
      <trkpt lat="50.12961" lon="3.76007">
        <ele>131.36</ele>
        <time>2017-04-02T08:50:15Z</time>
      </trkpt>
      <trkpt lat="50.12999" lon="3.76005">
        <ele>131.84</ele>
        <time>2017-04-02T08:50:29Z</time>
      </trkpt>
      <trkpt lat="50.13049" lon="3.76">
        <ele>131.84</ele>
        <time>2017-04-02T08:50:46Z</time>
      </trkpt>
      <trkpt lat="50.13095" lon="3.75993">
        <ele>131.84</ele>
        <time>2017-04-02T08:51:02Z</time>
      </trkpt>
      <trkpt lat="50.13135" lon="3.75965">
        <ele>131.84</ele>
        <time>2017-04-02T08:51:17Z</time>
      </trkpt>
      <trkpt lat="50.13182" lon="3.75932">
        <ele>131.84</ele>
        <time>2017-04-02T08:51:33Z</time>
      </trkpt>
      <trkpt lat="50.1321" lon="3.75914">
        <ele>131.36</ele>
        <time>2017-04-02T08:51:44Z</time>
      </trkpt>
      <trkpt lat="50.13228" lon="3.75902">
        <ele>132.32</ele>
        <time>2017-04-02T08:51:51Z</time>
      </trkpt>
      <trkpt lat="50.13259" lon="3.75888">
        <ele>132.8</ele>
        <time>2017-04-02T08:52:05Z</time>
      </trkpt>
      <trkpt lat="50.13265" lon="3.75887">
        <ele>132.8</ele>
        <time>2017-04-02T08:52:14Z</time>
      </trkpt>
      <trkpt lat="50.13271" lon="3.75885">
        <ele>133.28</ele>
        <time>2017-04-02T08:52:28Z</time>
      </trkpt>
      <trkpt lat="50.13272" lon="3.75885">
        <ele>133.28</ele>
        <time>2017-04-02T08:52:43Z</time>
      </trkpt>
      <trkpt lat="50.13279" lon="3.75885">
        <ele>134.24</ele>
        <time>2017-04-02T08:53:01Z</time>
      </trkpt>
      <trkpt lat="50.13284" lon="3.75885">
        <ele>136.16</ele>
        <time>2017-04-02T08:53:13Z</time>
      </trkpt>
      <trkpt lat="50.1329" lon="3.75895">
        <ele>136.16</ele>
        <time>2017-04-02T08:53:19Z</time>
      </trkpt>
      <trkpt lat="50.13291" lon="3.75903">
        <ele>136.16</ele>
        <time>2017-04-02T08:53:27Z</time>
      </trkpt>
      <trkpt lat="50.13299" lon="3.75952">
        <ele>136.16</ele>
        <time>2017-04-02T08:53:39Z</time>
      </trkpt>
      <trkpt lat="50.13297" lon="3.75957">
        <ele>136.16</ele>
        <time>2017-04-02T08:53:40Z</time>
      </trkpt>
      <trkpt lat="50.13294" lon="3.75962">
        <ele>136.16</ele>
        <time>2017-04-02T08:53:41Z</time>
      </trkpt>
      <trkpt lat="50.13291" lon="3.75968">
        <ele>136.16</ele>
        <time>2017-04-02T08:53:42Z</time>
      </trkpt>
      <trkpt lat="50.13287" lon="3.75974">
        <ele>134.72</ele>
        <time>2017-04-02T08:53:43Z</time>
      </trkpt>
      <trkpt lat="50.13284" lon="3.75979">
        <ele>134.72</ele>
        <time>2017-04-02T08:53:44Z</time>
      </trkpt>
      <trkpt lat="50.1328" lon="3.75986">
        <ele>134.24</ele>
        <time>2017-04-02T08:53:45Z</time>
      </trkpt>
      <trkpt lat="50.13285" lon="3.76011">
        <ele>133.76</ele>
        <time>2017-04-02T08:53:50Z</time>
      </trkpt>
      <trkpt lat="50.13302" lon="3.76018">
        <ele>135.2</ele>
        <time>2017-04-02T08:53:57Z</time>
      </trkpt>
      <trkpt lat="50.13303" lon="3.7602">
        <ele>135.2</ele>
        <time>2017-04-02T08:53:58Z</time>
      </trkpt>
      <trkpt lat="50.13304" lon="3.76027">
        <ele>135.68</ele>
        <time>2017-04-02T08:54:00Z</time>
      </trkpt>
      <trkpt lat="50.13301" lon="3.76045">
        <ele>136.16</ele>
        <time>2017-04-02T08:54:05Z</time>
      </trkpt>
      <trkpt lat="50.13287" lon="3.76104">
        <ele>134.24</ele>
        <time>2017-04-02T08:54:19Z</time>
      </trkpt>
      <trkpt lat="50.1328" lon="3.76134">
        <ele>135.68</ele>
        <time>2017-04-02T08:54:27Z</time>
      </trkpt>
      <trkpt lat="50.13281" lon="3.76165">
        <ele>137.13</ele>
        <time>2017-04-02T08:54:37Z</time>
      </trkpt>
      <trkpt lat="50.13279" lon="3.76168">
        <ele>137.13</ele>
        <time>2017-04-02T08:54:38Z</time>
      </trkpt>
      <trkpt lat="50.13276" lon="3.76169">
        <ele>137.13</ele>
        <time>2017-04-02T08:54:39Z</time>
      </trkpt>
      <trkpt lat="50.13273" lon="3.76171">
        <ele>137.13</ele>
        <time>2017-04-02T08:54:40Z</time>
      </trkpt>
      <trkpt lat="50.13269" lon="3.76173">
        <ele>135.68</ele>
        <time>2017-04-02T08:54:41Z</time>
      </trkpt>
      <trkpt lat="50.13237" lon="3.762">
        <ele>134.24</ele>
        <time>2017-04-02T08:54:48Z</time>
      </trkpt>
      <trkpt lat="50.13232" lon="3.76205">
        <ele>133.76</ele>
        <time>2017-04-02T08:54:49Z</time>
      </trkpt>
      <trkpt lat="50.13228" lon="3.76212">
        <ele>133.76</ele>
        <time>2017-04-02T08:54:50Z</time>
      </trkpt>
      <trkpt lat="50.13196" lon="3.76271">
        <ele>132.8</ele>
        <time>2017-04-02T08:55:02Z</time>
      </trkpt>
      <trkpt lat="50.13189" lon="3.76271">
        <ele>133.28</ele>
        <time>2017-04-02T08:55:05Z</time>
      </trkpt>
      <trkpt lat="50.13187" lon="3.76273">
        <ele>133.28</ele>
        <time>2017-04-02T08:55:06Z</time>
      </trkpt>
      <trkpt lat="50.13184" lon="3.76277">
        <ele>133.28</ele>
        <time>2017-04-02T08:55:07Z</time>
      </trkpt>
      <trkpt lat="50.13181" lon="3.76281">
        <ele>133.28</ele>
        <time>2017-04-02T08:55:08Z</time>
      </trkpt>
      <trkpt lat="50.13173" lon="3.76299">
        <ele>133.28</ele>
        <time>2017-04-02T08:55:12Z</time>
      </trkpt>
      <trkpt lat="50.1317" lon="3.76303">
        <ele>133.28</ele>
        <time>2017-04-02T08:55:13Z</time>
      </trkpt>
      <trkpt lat="50.13167" lon="3.76306">
        <ele>133.28</ele>
        <time>2017-04-02T08:55:14Z</time>
      </trkpt>
      <trkpt lat="50.13164" lon="3.7631">
        <ele>133.28</ele>
        <time>2017-04-02T08:55:15Z</time>
      </trkpt>
      <trkpt lat="50.13162" lon="3.76315">
        <ele>133.28</ele>
        <time>2017-04-02T08:55:16Z</time>
      </trkpt>
      <trkpt lat="50.13145" lon="3.76344">
        <ele>134.24</ele>
        <time>2017-04-02T08:55:24Z</time>
      </trkpt>
      <trkpt lat="50.13141" lon="3.76353">
        <ele>134.72</ele>
        <time>2017-04-02T08:55:27Z</time>
      </trkpt>
      <trkpt lat="50.13133" lon="3.76394">
        <ele>135.68</ele>
        <time>2017-04-02T08:55:39Z</time>
      </trkpt>
      <trkpt lat="50.13151" lon="3.76423">
        <ele>135.2</ele>
        <time>2017-04-02T08:55:50Z</time>
      </trkpt>
      <trkpt lat="50.13154" lon="3.76422">
        <ele>135.2</ele>
        <time>2017-04-02T08:55:51Z</time>
      </trkpt>
      <trkpt lat="50.13166" lon="3.76399">
        <ele>137.13</ele>
        <time>2017-04-02T08:56:01Z</time>
      </trkpt>
      <trkpt lat="50.13192" lon="3.76363">
        <ele>138.09</ele>
        <time>2017-04-02T08:56:13Z</time>
      </trkpt>
      <trkpt lat="50.13209" lon="3.76348">
        <ele>140.49</ele>
        <time>2017-04-02T08:56:23Z</time>
      </trkpt>
      <trkpt lat="50.13241" lon="3.76336">
        <ele>143.37</ele>
        <time>2017-04-02T08:56:36Z</time>
      </trkpt>
      <trkpt lat="50.13245" lon="3.76336">
        <ele>143.37</ele>
        <time>2017-04-02T08:56:38Z</time>
      </trkpt>
      <trkpt lat="50.13248" lon="3.76337">
        <ele>143.85</ele>
        <time>2017-04-02T08:56:39Z</time>
      </trkpt>
      <trkpt lat="50.13269" lon="3.76351">
        <ele>146.26</ele>
        <time>2017-04-02T08:56:51Z</time>
      </trkpt>
      <trkpt lat="50.13301" lon="3.76358">
        <ele>148.18</ele>
        <time>2017-04-02T08:57:03Z</time>
      </trkpt>
      <trkpt lat="50.13345" lon="3.76346">
        <ele>150.58</ele>
        <time>2017-04-02T08:57:18Z</time>
      </trkpt>
      <trkpt lat="50.13389" lon="3.7636">
        <ele>151.54</ele>
        <time>2017-04-02T08:57:35Z</time>
      </trkpt>
      <trkpt lat="50.13416" lon="3.76386">
        <ele>152.51</ele>
        <time>2017-04-02T08:57:49Z</time>
      </trkpt>
      <trkpt lat="50.13427" lon="3.76405">
        <ele>152.99</ele>
        <time>2017-04-02T08:57:57Z</time>
      </trkpt>
      <trkpt lat="50.13428" lon="3.76407">
        <ele>152.99</ele>
        <time>2017-04-02T08:57:58Z</time>
      </trkpt>
      <trkpt lat="50.1343" lon="3.76409">
        <ele>152.99</ele>
        <time>2017-04-02T08:57:59Z</time>
      </trkpt>
      <trkpt lat="50.13431" lon="3.76409">
        <ele>153.47</ele>
        <time>2017-04-02T08:58:00Z</time>
      </trkpt>
      <trkpt lat="50.13435" lon="3.76404">
        <ele>153.47</ele>
        <time>2017-04-02T08:58:11Z</time>
      </trkpt>
      <trkpt lat="50.13437" lon="3.76404">
        <ele>153.47</ele>
        <time>2017-04-02T08:58:27Z</time>
      </trkpt>
      <trkpt lat="50.13435" lon="3.764">
        <ele>153.47</ele>
        <time>2017-04-02T08:58:51Z</time>
      </trkpt>
      <trkpt lat="50.13437" lon="3.76401">
        <ele>153.95</ele>
        <time>2017-04-02T08:59:13Z</time>
      </trkpt>
      <trkpt lat="50.13437" lon="3.76403">
        <ele>153.95</ele>
        <time>2017-04-02T08:59:33Z</time>
      </trkpt>
    </trkseg>
  </trk>
</gpx>